sensor_id;sensor_type;location;lat;lon;timestamp;P1;durP1;ratioP1;P2;durP2;ratioP2
42662;SDS011;44330;51.360;6.686;2023-05-10T00:01:37;18.90;;;13.00;;
42662;SDS011;44330;51.360;6.686;2023-05-10T00:04:02;18.17;;;13.55;;
42662;SDS011;44330;51.360;6.686;2023-05-10T00:06:28;19.88;;;12.98;;
42662;SDS011;44330;51.360;6.686;2023-05-10T00:08:54;18.70;;;13.05;;
42662;SDS011;44330;51.360;6.686;2023-05-10T00:11:20;19.63;;;14.02;;
42662;SDS011;44330;51.360;6.686;2023-05-10T00:13:46;21.17;;;13.73;;
42662;SDS011;44330;51.360;6.686;2023-05-10T00:16:12;21.58;;;14.02;;
42662;SDS011;44330;51.360;6.686;2023-05-10T00:18:38;20.42;;;14.25;;
42662;SDS011;44330;51.360;6.686;2023-05-10T00:21:03;19.77;;;14.00;;
42662;SDS011;44330;51.360;6.686;2023-05-10T00:23:29;23.52;;;16.88;;
42662;SDS011;44330;51.360;6.686;2023-05-10T00:25:55;22.13;;;15.70;;
42662;SDS011;44330;51.360;6.686;2023-05-10T00:28:21;19.67;;;14.13;;
42662;SDS011;44330;51.360;6.686;2023-05-10T00:30:47;19.15;;;13.80;;
42662;SDS011;44330;51.360;6.686;2023-05-10T00:33:12;21.88;;;14.55;;
42662;SDS011;44330;51.360;6.686;2023-05-10T00:35:39;21.05;;;13.75;;
42662;SDS011;44330;51.360;6.686;2023-05-10T00:38:05;21.50;;;14.07;;
42662;SDS011;44330;51.360;6.686;2023-05-10T00:40:31;21.10;;;14.65;;
42662;SDS011;44330;51.360;6.686;2023-05-10T00:42:57;19.33;;;13.50;;
42662;SDS011;44330;51.360;6.686;2023-05-10T00:45:23;21.55;;;15.13;;
42662;SDS011;44330;51.360;6.686;2023-05-10T00:47:50;22.08;;;13.70;;
42662;SDS011;44330;51.360;6.686;2023-05-10T00:50:19;19.83;;;13.73;;
42662;SDS011;44330;51.360;6.686;2023-05-10T00:52:46;20.73;;;13.90;;
42662;SDS011;44330;51.360;6.686;2023-05-10T00:55:12;24.55;;;15.25;;
42662;SDS011;44330;51.360;6.686;2023-05-10T00:57:38;22.85;;;15.80;;
42662;SDS011;44330;51.360;6.686;2023-05-10T01:00:04;23.70;;;15.50;;
42662;SDS011;44330;51.360;6.686;2023-05-10T01:02:30;24.00;;;16.00;;
42662;SDS011;44330;51.360;6.686;2023-05-10T01:04:58;22.38;;;15.70;;
42662;SDS011;44330;51.360;6.686;2023-05-10T01:07:24;24.35;;;15.88;;
42662;SDS011;44330;51.360;6.686;2023-05-10T01:09:50;23.50;;;14.73;;
42662;SDS011;44330;51.360;6.686;2023-05-10T01:12:16;24.42;;;16.55;;
42662;SDS011;44330;51.360;6.686;2023-05-10T01:14:42;22.70;;;15.85;;
42662;SDS011;44330;51.360;6.686;2023-05-10T01:17:08;25.20;;;16.25;;
42662;SDS011;44330;51.360;6.686;2023-05-10T01:19:35;26.90;;;17.95;;
42662;SDS011;44330;51.360;6.686;2023-05-10T01:22:13;25.25;;;15.50;;
42662;SDS011;44330;51.360;6.686;2023-05-10T01:33:35;28.83;;;17.83;;
42662;SDS011;44330;51.360;6.686;2023-05-10T01:36:09;26.48;;;16.40;;
42662;SDS011;44330;51.360;6.686;2023-05-10T01:38:51;23.70;;;15.18;;
42662;SDS011;44330;51.360;6.686;2023-05-10T01:46:37;23.92;;;14.57;;
42662;SDS011;44330;51.360;6.686;2023-05-10T01:49:08;28.38;;;15.70;;
42662;SDS011;44330;51.360;6.686;2023-05-10T01:51:39;21.63;;;14.35;;
42662;SDS011;44330;51.360;6.686;2023-05-10T01:54:11;24.52;;;14.07;;
42662;SDS011;44330;51.360;6.686;2023-05-10T01:56:38;21.73;;;13.23;;
42662;SDS011;44330;51.360;6.686;2023-05-10T01:59:06;20.58;;;12.80;;
42662;SDS011;44330;51.360;6.686;2023-05-10T02:01:40;23.60;;;14.02;;
42662;SDS011;44330;51.360;6.686;2023-05-10T02:04:07;25.20;;;13.80;;
42662;SDS011;44330;51.360;6.686;2023-05-10T02:06:34;24.85;;;15.38;;
42662;SDS011;44330;51.360;6.686;2023-05-10T02:09:02;24.90;;;13.27;;
42662;SDS011;44330;51.360;6.686;2023-05-10T02:11:29;21.30;;;12.95;;
42662;SDS011;44330;51.360;6.686;2023-05-10T02:13:56;20.80;;;13.27;;
42662;SDS011;44330;51.360;6.686;2023-05-10T02:16:23;22.20;;;15.00;;
42662;SDS011;44330;51.360;6.686;2023-05-10T02:18:51;21.55;;;13.00;;
42662;SDS011;44330;51.360;6.686;2023-05-10T02:21:17;24.75;;;13.90;;
42662;SDS011;44330;51.360;6.686;2023-05-10T02:23:45;22.48;;;13.82;;
42662;SDS011;44330;51.360;6.686;2023-05-10T02:26:14;24.90;;;14.45;;
42662;SDS011;44330;51.360;6.686;2023-05-10T02:28:40;26.15;;;14.77;;
42662;SDS011;44330;51.360;6.686;2023-05-10T02:31:08;24.30;;;14.38;;
42662;SDS011;44330;51.360;6.686;2023-05-10T02:33:35;21.35;;;13.98;;
42662;SDS011;44330;51.360;6.686;2023-05-10T02:36:02;27.30;;;14.00;;
42662;SDS011;44330;51.360;6.686;2023-05-10T02:38:28;21.23;;;13.32;;
42662;SDS011;44330;51.360;6.686;2023-05-10T02:40:55;20.45;;;12.50;;
42662;SDS011;44330;51.360;6.686;2023-05-10T02:43:22;21.88;;;13.63;;
42662;SDS011;44330;51.360;6.686;2023-05-10T02:45:49;22.48;;;14.32;;
42662;SDS011;44330;51.360;6.686;2023-05-10T02:48:15;22.75;;;13.93;;
42662;SDS011;44330;51.360;6.686;2023-05-10T02:50:42;26.13;;;14.77;;
42662;SDS011;44330;51.360;6.686;2023-05-10T02:53:10;21.58;;;13.43;;
42662;SDS011;44330;51.360;6.686;2023-05-10T02:55:40;23.85;;;15.05;;
42662;SDS011;44330;51.360;6.686;2023-05-10T02:58:08;21.13;;;14.15;;
42662;SDS011;44330;51.360;6.686;2023-05-10T03:00:33;22.60;;;14.48;;
42662;SDS011;44330;51.360;6.686;2023-05-10T03:03:00;19.38;;;12.80;;
42662;SDS011;44330;51.360;6.686;2023-05-10T03:05:26;20.98;;;13.00;;
42662;SDS011;44330;51.360;6.686;2023-05-10T03:07:52;23.90;;;13.70;;
42662;SDS011;44330;51.360;6.686;2023-05-10T03:10:18;24.85;;;14.30;;
42662;SDS011;44330;51.360;6.686;2023-05-10T03:18:12;19.00;;;12.10;;
42662;SDS011;44330;51.360;6.686;2023-05-10T03:20:44;21.75;;;12.65;;
42662;SDS011;44330;51.360;6.686;2023-05-10T03:23:22;20.23;;;12.70;;
42662;SDS011;44330;51.360;6.686;2023-05-10T03:25:54;19.50;;;12.75;;
42662;SDS011;44330;51.360;6.686;2023-05-10T03:28:23;20.48;;;12.32;;
42662;SDS011;44330;51.360;6.686;2023-05-10T03:30:59;19.98;;;12.30;;
42662;SDS011;44330;51.360;6.686;2023-05-10T03:33:31;22.98;;;13.77;;
42662;SDS011;44330;51.360;6.686;2023-05-10T03:35:57;22.95;;;12.90;;
42662;SDS011;44330;51.360;6.686;2023-05-10T03:38:23;23.65;;;13.57;;
42662;SDS011;44330;51.360;6.686;2023-05-10T03:40:49;22.08;;;12.82;;
42662;SDS011;44330;51.360;6.686;2023-05-10T03:43:14;19.77;;;13.27;;
42662;SDS011;44330;51.360;6.686;2023-05-10T03:45:40;26.55;;;13.55;;
42662;SDS011;44330;51.360;6.686;2023-05-10T03:48:06;25.10;;;14.30;;
42662;SDS011;44330;51.360;6.686;2023-05-10T03:50:32;24.75;;;14.75;;
42662;SDS011;44330;51.360;6.686;2023-05-10T03:52:57;24.98;;;14.55;;
42662;SDS011;44330;51.360;6.686;2023-05-10T03:55:23;31.98;;;15.00;;
42662;SDS011;44330;51.360;6.686;2023-05-10T03:57:49;24.92;;;15.02;;
42662;SDS011;44330;51.360;6.686;2023-05-10T04:00:15;26.67;;;15.02;;
42662;SDS011;44330;51.360;6.686;2023-05-10T04:02:41;24.45;;;15.43;;
42662;SDS011;44330;51.360;6.686;2023-05-10T04:05:06;27.67;;;17.17;;
42662;SDS011;44330;51.360;6.686;2023-05-10T04:07:32;32.05;;;17.17;;
42662;SDS011;44330;51.360;6.686;2023-05-10T04:09:58;26.70;;;16.70;;
42662;SDS011;44330;51.360;6.686;2023-05-10T04:12:24;30.15;;;16.80;;
42662;SDS011;44330;51.360;6.686;2023-05-10T04:14:49;27.77;;;15.65;;
42662;SDS011;44330;51.360;6.686;2023-05-10T04:17:16;33.38;;;16.85;;
42662;SDS011;44330;51.360;6.686;2023-05-10T04:19:41;29.83;;;17.80;;
42662;SDS011;44330;51.360;6.686;2023-05-10T04:22:07;28.95;;;17.58;;
42662;SDS011;44330;51.360;6.686;2023-05-10T04:24:33;30.02;;;18.20;;
42662;SDS011;44330;51.360;6.686;2023-05-10T04:26:59;33.10;;;20.05;;
42662;SDS011;44330;51.360;6.686;2023-05-10T04:29:24;32.78;;;19.30;;
42662;SDS011;44330;51.360;6.686;2023-05-10T04:31:50;39.95;;;21.90;;
42662;SDS011;44330;51.360;6.686;2023-05-10T04:34:15;43.45;;;22.95;;
42662;SDS011;44330;51.360;6.686;2023-05-10T04:36:41;40.65;;;22.80;;
42662;SDS011;44330;51.360;6.686;2023-05-10T04:39:06;44.50;;;23.92;;
42662;SDS011;44330;51.360;6.686;2023-05-10T04:41:32;49.38;;;24.42;;
42662;SDS011;44330;51.360;6.686;2023-05-10T04:43:58;48.88;;;24.02;;
42662;SDS011;44330;51.360;6.686;2023-05-10T04:46:23;52.67;;;25.35;;
42662;SDS011;44330;51.360;6.686;2023-05-10T04:48:49;44.58;;;24.70;;
42662;SDS011;44330;51.360;6.686;2023-05-10T04:51:14;46.72;;;24.92;;
42662;SDS011;44330;51.360;6.686;2023-05-10T04:53:40;47.10;;;25.00;;
42662;SDS011;44330;51.360;6.686;2023-05-10T04:56:05;47.40;;;24.63;;
42662;SDS011;44330;51.360;6.686;2023-05-10T04:58:32;43.25;;;24.05;;
42662;SDS011;44330;51.360;6.686;2023-05-10T05:01:04;55.28;;;26.98;;
42662;SDS011;44330;51.360;6.686;2023-05-10T05:03:33;53.70;;;27.13;;
42662;SDS011;44330;51.360;6.686;2023-05-10T05:05:58;45.95;;;25.40;;
42662;SDS011;44330;51.360;6.686;2023-05-10T05:08:24;52.03;;;27.35;;
42662;SDS011;44330;51.360;6.686;2023-05-10T05:10:50;50.85;;;26.25;;
42662;SDS011;44330;51.360;6.686;2023-05-10T05:13:15;52.75;;;26.67;;
42662;SDS011;44330;51.360;6.686;2023-05-10T05:15:41;46.67;;;26.38;;
42662;SDS011;44330;51.360;6.686;2023-05-10T05:18:06;50.17;;;26.70;;
42662;SDS011;44330;51.360;6.686;2023-05-10T05:20:32;43.58;;;25.55;;
42662;SDS011;44330;51.360;6.686;2023-05-10T05:22:59;52.03;;;26.88;;
42662;SDS011;44330;51.360;6.686;2023-05-10T05:25:25;51.05;;;26.63;;
42662;SDS011;44330;51.360;6.686;2023-05-10T05:27:50;50.58;;;27.45;;
42662;SDS011;44330;51.360;6.686;2023-05-10T05:30:16;53.50;;;27.83;;
42662;SDS011;44330;51.360;6.686;2023-05-10T05:32:41;56.65;;;29.13;;
42662;SDS011;44330;51.360;6.686;2023-05-10T05:35:07;46.33;;;26.35;;
42662;SDS011;44330;51.360;6.686;2023-05-10T05:37:33;50.50;;;27.50;;
42662;SDS011;44330;51.360;6.686;2023-05-10T05:40:00;52.95;;;27.92;;
42662;SDS011;44330;51.360;6.686;2023-05-10T05:42:26;48.10;;;26.70;;
42662;SDS011;44330;51.360;6.686;2023-05-10T05:44:52;55.35;;;28.52;;
42662;SDS011;44330;51.360;6.686;2023-05-10T05:47:21;53.95;;;29.42;;
42662;SDS011;44330;51.360;6.686;2023-05-10T05:49:46;52.72;;;27.95;;
42662;SDS011;44330;51.360;6.686;2023-05-10T05:52:12;53.25;;;28.58;;
42662;SDS011;44330;51.360;6.686;2023-05-10T05:54:41;55.83;;;29.50;;
42662;SDS011;44330;51.360;6.686;2023-05-10T05:57:06;56.47;;;29.33;;
42662;SDS011;44330;51.360;6.686;2023-05-10T05:59:32;66.25;;;31.73;;
42662;SDS011;44330;51.360;6.686;2023-05-10T06:01:58;62.60;;;31.67;;
42662;SDS011;44330;51.360;6.686;2023-05-10T06:04:26;58.83;;;29.70;;
42662;SDS011;44330;51.360;6.686;2023-05-10T06:07:02;63.65;;;31.00;;
42662;SDS011;44330;51.360;6.686;2023-05-10T06:09:28;60.70;;;30.40;;
42662;SDS011;44330;51.360;6.686;2023-05-10T06:11:56;72.22;;;32.53;;
42662;SDS011;44330;51.360;6.686;2023-05-10T06:14:24;61.85;;;30.75;;
42662;SDS011;44330;51.360;6.686;2023-05-10T06:16:53;63.88;;;31.52;;
42662;SDS011;44330;51.360;6.686;2023-05-10T06:19:28;65.70;;;32.00;;
42662;SDS011;44330;51.360;6.686;2023-05-10T06:21:55;67.40;;;30.70;;
42662;SDS011;44330;51.360;6.686;2023-05-10T06:24:24;63.78;;;30.42;;
42662;SDS011;44330;51.360;6.686;2023-05-10T06:26:52;67.10;;;31.58;;
42662;SDS011;44330;51.360;6.686;2023-05-10T06:29:27;66.93;;;31.77;;
42662;SDS011;44330;51.360;6.686;2023-05-10T06:31:53;65.65;;;30.23;;
42662;SDS011;44330;51.360;6.686;2023-05-10T06:38:15;58.42;;;27.48;;
42662;SDS011;44330;51.360;6.686;2023-05-10T06:40:46;67.00;;;29.75;;
42662;SDS011;44330;51.360;6.686;2023-05-10T06:45:51;57.13;;;27.38;;
42662;SDS011;44330;51.360;6.686;2023-05-10T06:48:27;65.55;;;29.48;;
42662;SDS011;44330;51.360;6.686;2023-05-10T06:50:57;60.22;;;28.13;;
42662;SDS011;44330;51.360;6.686;2023-05-10T06:53:23;65.50;;;29.25;;
42662;SDS011;44330;51.360;6.686;2023-05-10T06:55:49;61.38;;;27.70;;
42662;SDS011;44330;51.360;6.686;2023-05-10T06:58:14;60.80;;;29.35;;
42662;SDS011;44330;51.360;6.686;2023-05-10T07:00:40;69.82;;;29.38;;
42662;SDS011;44330;51.360;6.686;2023-05-10T07:03:08;65.45;;;27.85;;
42662;SDS011;44330;51.360;6.686;2023-05-10T07:05:38;59.05;;;28.67;;
42662;SDS011;44330;51.360;6.686;2023-05-10T07:08:24;59.97;;;26.77;;
42662;SDS011;44330;51.360;6.686;2023-05-10T07:10:52;56.25;;;26.65;;
42662;SDS011;44330;51.360;6.686;2023-05-10T07:13:18;56.47;;;26.50;;
42662;SDS011;44330;51.360;6.686;2023-05-10T07:15:43;57.67;;;27.13;;
42662;SDS011;44330;51.360;6.686;2023-05-10T07:18:09;60.25;;;26.00;;
42662;SDS011;44330;51.360;6.686;2023-05-10T07:20:35;55.67;;;26.38;;
42662;SDS011;44330;51.360;6.686;2023-05-10T07:23:01;55.80;;;26.33;;
42662;SDS011;44330;51.360;6.686;2023-05-10T07:25:26;61.90;;;27.30;;
42662;SDS011;44330;51.360;6.686;2023-05-10T07:27:52;61.90;;;28.02;;
42662;SDS011;44330;51.360;6.686;2023-05-10T07:30:18;63.03;;;26.70;;
42662;SDS011;44330;51.360;6.686;2023-05-10T07:32:43;51.42;;;24.70;;
42662;SDS011;44330;51.360;6.686;2023-05-10T07:35:09;61.03;;;26.33;;
42662;SDS011;44330;51.360;6.686;2023-05-10T07:40:53;56.67;;;25.98;;
42662;SDS011;44330;51.360;6.686;2023-05-10T07:46:09;55.33;;;26.98;;
42662;SDS011;44330;51.360;6.686;2023-05-10T07:48:36;58.67;;;28.20;;
42662;SDS011;44330;51.360;6.686;2023-05-10T07:51:02;60.38;;;28.88;;
42662;SDS011;44330;51.360;6.686;2023-05-10T07:53:27;58.30;;;28.75;;
42662;SDS011;44330;51.360;6.686;2023-05-10T07:55:54;58.67;;;27.33;;
42662;SDS011;44330;51.360;6.686;2023-05-10T07:58:26;58.33;;;27.25;;
42662;SDS011;44330;51.360;6.686;2023-05-10T08:00:52;56.97;;;29.17;;
42662;SDS011;44330;51.360;6.686;2023-05-10T08:03:17;56.47;;;28.40;;
42662;SDS011;44330;51.360;6.686;2023-05-10T08:05:43;63.88;;;29.73;;
42662;SDS011;44330;51.360;6.686;2023-05-10T08:08:08;67.25;;;31.63;;
42662;SDS011;44330;51.360;6.686;2023-05-10T08:10:34;67.40;;;29.60;;
42662;SDS011;44330;51.360;6.686;2023-05-10T08:13:00;61.35;;;27.90;;
42662;SDS011;44330;51.360;6.686;2023-05-10T08:15:28;59.35;;;28.13;;
42662;SDS011;44330;51.360;6.686;2023-05-10T08:17:53;59.10;;;27.42;;
42662;SDS011;44330;51.360;6.686;2023-05-10T08:20:19;61.97;;;28.70;;
42662;SDS011;44330;51.360;6.686;2023-05-10T08:22:45;55.88;;;26.75;;
42662;SDS011;44330;51.360;6.686;2023-05-10T08:25:11;55.13;;;28.30;;
42662;SDS011;44330;51.360;6.686;2023-05-10T08:27:37;53.60;;;29.08;;
42662;SDS011;44330;51.360;6.686;2023-05-10T08:30:03;52.25;;;27.83;;
42662;SDS011;44330;51.360;6.686;2023-05-10T08:32:29;47.95;;;25.85;;
42662;SDS011;44330;51.360;6.686;2023-05-10T08:34:54;47.55;;;26.55;;
42662;SDS011;44330;51.360;6.686;2023-05-10T08:37:21;50.67;;;25.00;;
42662;SDS011;44330;51.360;6.686;2023-05-10T08:39:56;49.70;;;24.65;;
42662;SDS011;44330;51.360;6.686;2023-05-10T08:42:25;45.22;;;23.30;;
42662;SDS011;44330;51.360;6.686;2023-05-10T08:45:03;52.53;;;24.88;;
42662;SDS011;44330;51.360;6.686;2023-05-10T08:47:30;43.20;;;23.33;;
42662;SDS011;44330;51.360;6.686;2023-05-10T08:49:56;47.65;;;23.83;;
42662;SDS011;44330;51.360;6.686;2023-05-10T08:52:24;45.63;;;23.33;;
42662;SDS011;44330;51.360;6.686;2023-05-10T08:57:18;42.00;;;22.20;;
42662;SDS011;44330;51.360;6.686;2023-05-10T08:59:47;43.65;;;23.65;;
42662;SDS011;44330;51.360;6.686;2023-05-10T09:02:13;41.17;;;22.45;;
42662;SDS011;44330;51.360;6.686;2023-05-10T09:04:39;53.22;;;24.17;;
42662;SDS011;44330;51.360;6.686;2023-05-10T09:07:08;40.58;;;21.67;;
42662;SDS011;44330;51.360;6.686;2023-05-10T09:09:36;39.40;;;22.17;;
42662;SDS011;44330;51.360;6.686;2023-05-10T09:12:02;38.33;;;22.23;;
42662;SDS011;44330;51.360;6.686;2023-05-10T09:14:28;41.00;;;21.00;;
42662;SDS011;44330;51.360;6.686;2023-05-10T09:16:58;34.80;;;19.73;;
42662;SDS011;44330;51.360;6.686;2023-05-10T09:19:24;32.17;;;18.42;;
42662;SDS011;44330;51.360;6.686;2023-05-10T09:21:49;28.67;;;17.38;;
42662;SDS011;44330;51.360;6.686;2023-05-10T09:24:15;28.52;;;17.75;;
42662;SDS011;44330;51.360;6.686;2023-05-10T09:29:43;32.38;;;16.98;;
42662;SDS011;44330;51.360;6.686;2023-05-10T09:32:13;29.00;;;15.98;;
42662;SDS011;44330;51.360;6.686;2023-05-10T09:34:42;25.92;;;16.20;;
42662;SDS011;44330;51.360;6.686;2023-05-10T09:37:08;29.20;;;17.33;;
42662;SDS011;44330;51.360;6.686;2023-05-10T09:39:34;29.20;;;16.65;;
42662;SDS011;44330;51.360;6.686;2023-05-10T09:42:05;28.80;;;16.58;;
42662;SDS011;44330;51.360;6.686;2023-05-10T09:44:33;26.83;;;17.05;;
42662;SDS011;44330;51.360;6.686;2023-05-10T09:46:59;29.42;;;16.75;;
42662;SDS011;44330;51.360;6.686;2023-05-10T09:49:26;27.92;;;17.15;;
42662;SDS011;44330;51.360;6.686;2023-05-10T09:52:02;30.90;;;17.40;;
42662;SDS011;44330;51.360;6.686;2023-05-10T09:54:38;34.28;;;16.77;;
42662;SDS011;44330;51.360;6.686;2023-05-10T09:57:20;23.98;;;15.68;;
42662;SDS011;44330;51.360;6.686;2023-05-10T09:59:47;30.45;;;17.65;;
42662;SDS011;44330;51.360;6.686;2023-05-10T10:02:13;30.00;;;17.95;;
42662;SDS011;44330;51.360;6.686;2023-05-10T10:04:42;34.33;;;19.15;;
42662;SDS011;44330;51.360;6.686;2023-05-10T10:07:08;32.80;;;18.65;;
42662;SDS011;44330;51.360;6.686;2023-05-10T10:09:34;31.00;;;18.17;;
42662;SDS011;44330;51.360;6.686;2023-05-10T10:12:01;30.33;;;19.35;;
42662;SDS011;44330;51.360;6.686;2023-05-10T10:14:28;26.75;;;17.42;;
42662;SDS011;44330;51.360;6.686;2023-05-10T10:16:57;29.77;;;17.38;;
42662;SDS011;44330;51.360;6.686;2023-05-10T10:19:25;28.60;;;18.23;;
42662;SDS011;44330;51.360;6.686;2023-05-10T10:21:51;34.30;;;18.30;;
42662;SDS011;44330;51.360;6.686;2023-05-10T10:24:17;28.35;;;17.45;;
42662;SDS011;44330;51.360;6.686;2023-05-10T10:26:43;35.13;;;17.67;;
42662;SDS011;44330;51.360;6.686;2023-05-10T10:31:46;31.13;;;17.77;;
42662;SDS011;44330;51.360;6.686;2023-05-10T10:34:27;27.27;;;16.00;;
42662;SDS011;44330;51.360;6.686;2023-05-10T10:36:54;27.33;;;16.58;;
42662;SDS011;44330;51.360;6.686;2023-05-10T10:39:21;25.27;;;15.70;;
42662;SDS011;44330;51.360;6.686;2023-05-10T10:41:51;24.60;;;14.07;;
42662;SDS011;44330;51.360;6.686;2023-05-10T10:52:13;22.75;;;14.10;;
42662;SDS011;44330;51.360;6.686;2023-05-10T10:54:51;17.85;;;12.35;;
42662;SDS011;44330;51.360;6.686;2023-05-10T10:57:18;21.55;;;12.30;;
42662;SDS011;44330;51.360;6.686;2023-05-10T10:59:44;19.88;;;13.07;;
42662;SDS011;44330;51.360;6.686;2023-05-10T11:07:56;22.80;;;13.10;;
42662;SDS011;44330;51.360;6.686;2023-05-10T11:10:23;23.40;;;14.18;;
42662;SDS011;44330;51.360;6.686;2023-05-10T11:12:51;21.77;;;13.80;;
42662;SDS011;44330;51.360;6.686;2023-05-10T11:15:17;21.70;;;13.43;;
42662;SDS011;44330;51.360;6.686;2023-05-10T11:17:42;22.00;;;14.45;;
42662;SDS011;44330;51.360;6.686;2023-05-10T11:20:13;19.15;;;13.45;;
42662;SDS011;44330;51.360;6.686;2023-05-10T11:22:49;21.40;;;13.70;;
42662;SDS011;44330;51.360;6.686;2023-05-10T11:25:19;21.30;;;13.48;;
42662;SDS011;44330;51.360;6.686;2023-05-10T11:27:46;18.52;;;11.93;;
42662;SDS011;44330;51.360;6.686;2023-05-10T11:30:13;18.05;;;12.30;;
42662;SDS011;44330;51.360;6.686;2023-05-10T11:32:40;17.95;;;12.60;;
42662;SDS011;44330;51.360;6.686;2023-05-10T11:35:09;18.25;;;12.45;;
42662;SDS011;44330;51.360;6.686;2023-05-10T11:37:36;21.13;;;12.20;;
42662;SDS011;44330;51.360;6.686;2023-05-10T11:43:05;15.35;;;10.55;;
42662;SDS011;44330;51.360;6.686;2023-05-10T11:45:33;20.83;;;10.70;;
42662;SDS011;44330;51.360;6.686;2023-05-10T11:47:59;15.13;;;10.30;;
42662;SDS011;44330;51.360;6.686;2023-05-10T11:50:25;17.45;;;9.98;;
42662;SDS011;44330;51.360;6.686;2023-05-10T11:52:55;14.88;;;9.43;;
42662;SDS011;44330;51.360;6.686;2023-05-10T11:55:21;14.60;;;9.23;;
42662;SDS011;44330;51.360;6.686;2023-05-10T11:57:51;13.60;;;8.88;;
42662;SDS011;44330;51.360;6.686;2023-05-10T12:00:18;14.48;;;9.27;;
42662;SDS011;44330;51.360;6.686;2023-05-10T12:02:43;14.40;;;10.30;;
42662;SDS011;44330;51.360;6.686;2023-05-10T12:05:09;14.25;;;10.63;;
42662;SDS011;44330;51.360;6.686;2023-05-10T12:07:35;14.65;;;10.18;;
42662;SDS011;44330;51.360;6.686;2023-05-10T12:10:08;22.98;;;11.10;;
42662;SDS011;44330;51.360;6.686;2023-05-10T12:12:52;16.42;;;10.77;;
42662;SDS011;44330;51.360;6.686;2023-05-10T12:15:20;13.70;;;11.35;;
42662;SDS011;44330;51.360;6.686;2023-05-10T12:17:49;19.05;;;12.50;;
42662;SDS011;44330;51.360;6.686;2023-05-10T12:20:20;18.85;;;12.27;;
42662;SDS011;44330;51.360;6.686;2023-05-10T12:22:47;19.13;;;12.45;;
42662;SDS011;44330;51.360;6.686;2023-05-10T12:25:14;20.27;;;12.50;;
42662;SDS011;44330;51.360;6.686;2023-05-10T12:27:39;23.13;;;12.93;;
42662;SDS011;44330;51.360;6.686;2023-05-10T12:30:06;21.60;;;13.25;;
42662;SDS011;44330;51.360;6.686;2023-05-10T12:32:41;21.35;;;11.88;;
42662;SDS011;44330;51.360;6.686;2023-05-10T12:35:09;17.80;;;11.55;;
42662;SDS011;44330;51.360;6.686;2023-05-10T12:37:34;19.80;;;11.93;;
42662;SDS011;44330;51.360;6.686;2023-05-10T12:40:05;18.77;;;12.07;;
42662;SDS011;44330;51.360;6.686;2023-05-10T12:42:31;16.90;;;11.35;;
42662;SDS011;44330;51.360;6.686;2023-05-10T12:44:57;17.95;;;10.95;;
42662;SDS011;44330;51.360;6.686;2023-05-10T12:47:22;19.80;;;10.73;;
42662;SDS011;44330;51.360;6.686;2023-05-10T12:49:48;14.88;;;9.90;;
42662;SDS011;44330;51.360;6.686;2023-05-10T12:52:14;14.63;;;10.10;;
42662;SDS011;44330;51.360;6.686;2023-05-10T12:54:39;14.85;;;10.70;;
42662;SDS011;44330;51.360;6.686;2023-05-10T12:57:05;12.13;;;8.98;;
42662;SDS011;44330;51.360;6.686;2023-05-10T12:59:30;11.65;;;9.07;;
42662;SDS011;44330;51.360;6.686;2023-05-10T13:01:56;10.40;;;8.25;;
42662;SDS011;44330;51.360;6.686;2023-05-10T13:04:22;10.65;;;7.65;;
42662;SDS011;44330;51.360;6.686;2023-05-10T13:06:48;13.10;;;8.60;;
42662;SDS011;44330;51.360;6.686;2023-05-10T13:09:14;13.82;;;8.63;;
42662;SDS011;44330;51.360;6.686;2023-05-10T13:11:40;11.85;;;8.98;;
42662;SDS011;44330;51.360;6.686;2023-05-10T13:14:06;9.52;;;7.97;;
42662;SDS011;44330;51.360;6.686;2023-05-10T13:16:31;15.35;;;8.63;;
42662;SDS011;44330;51.360;6.686;2023-05-10T13:18:57;13.90;;;10.20;;
42662;SDS011;44330;51.360;6.686;2023-05-10T13:21:23;15.05;;;10.80;;
42662;SDS011;44330;51.360;6.686;2023-05-10T13:23:50;13.98;;;9.18;;
42662;SDS011;44330;51.360;6.686;2023-05-10T13:26:15;14.52;;;11.15;;
42662;SDS011;44330;51.360;6.686;2023-05-10T13:28:41;18.60;;;10.88;;
42662;SDS011;44330;51.360;6.686;2023-05-10T13:31:07;15.45;;;10.98;;
42662;SDS011;44330;51.360;6.686;2023-05-10T13:33:32;16.05;;;10.73;;
42662;SDS011;44330;51.360;6.686;2023-05-10T13:35:58;15.57;;;10.68;;
42662;SDS011;44330;51.360;6.686;2023-05-10T13:38:24;13.90;;;9.00;;
42662;SDS011;44330;51.360;6.686;2023-05-10T13:40:49;14.82;;;10.02;;
42662;SDS011;44330;51.360;6.686;2023-05-10T13:43:17;14.52;;;11.20;;
42662;SDS011;44330;51.360;6.686;2023-05-10T13:45:43;14.02;;;11.07;;
42662;SDS011;44330;51.360;6.686;2023-05-10T13:48:18;15.32;;;11.32;;
42662;SDS011;44330;51.360;6.686;2023-05-10T13:50:59;16.50;;;11.75;;
42662;SDS011;44330;51.360;6.686;2023-05-10T13:53:25;16.42;;;11.30;;
42662;SDS011;44330;51.360;6.686;2023-05-10T13:55:50;16.70;;;12.23;;
42662;SDS011;44330;51.360;6.686;2023-05-10T13:58:16;19.05;;;13.50;;
42662;SDS011;44330;51.360;6.686;2023-05-10T14:00:41;20.05;;;13.93;;
42662;SDS011;44330;51.360;6.686;2023-05-10T14:03:07;18.52;;;13.93;;
42662;SDS011;44330;51.360;6.686;2023-05-10T14:05:35;18.27;;;14.27;;
42662;SDS011;44330;51.360;6.686;2023-05-10T14:08:01;23.88;;;15.98;;
42662;SDS011;44330;51.360;6.686;2023-05-10T14:10:27;24.05;;;16.60;;
42662;SDS011;44330;51.360;6.686;2023-05-10T14:12:53;26.45;;;17.63;;
42662;SDS011;44330;51.360;6.686;2023-05-10T14:15:18;24.40;;;17.33;;
42662;SDS011;44330;51.360;6.686;2023-05-10T14:17:44;24.13;;;16.73;;
42662;SDS011;44330;51.360;6.686;2023-05-10T14:20:10;24.52;;;17.10;;
42662;SDS011;44330;51.360;6.686;2023-05-10T14:22:36;26.40;;;18.27;;
42662;SDS011;44330;51.360;6.686;2023-05-10T14:25:02;21.38;;;16.27;;
42662;SDS011;44330;51.360;6.686;2023-05-10T14:27:28;24.65;;;17.08;;
42662;SDS011;44330;51.360;6.686;2023-05-10T14:29:54;24.55;;;17.38;;
42662;SDS011;44330;51.360;6.686;2023-05-10T14:32:20;25.55;;;16.88;;
42662;SDS011;44330;51.360;6.686;2023-05-10T14:34:45;19.75;;;15.70;;
42662;SDS011;44330;51.360;6.686;2023-05-10T14:37:13;24.88;;;17.67;;
42662;SDS011;44330;51.360;6.686;2023-05-10T14:39:40;28.45;;;17.23;;
42662;SDS011;44330;51.360;6.686;2023-05-10T14:42:05;22.33;;;15.48;;
42662;SDS011;44330;51.360;6.686;2023-05-10T14:44:31;22.75;;;16.67;;
42662;SDS011;44330;51.360;6.686;2023-05-10T14:46:56;20.25;;;14.80;;
42662;SDS011;44330;51.360;6.686;2023-05-10T14:49:22;19.63;;;14.07;;
42662;SDS011;44330;51.360;6.686;2023-05-10T14:51:50;15.93;;;11.98;;
42662;SDS011;44330;51.360;6.686;2023-05-10T14:54:15;21.17;;;13.15;;
42662;SDS011;44330;51.360;6.686;2023-05-10T14:56:41;16.27;;;12.45;;
42662;SDS011;44330;51.360;6.686;2023-05-10T14:59:07;17.42;;;13.30;;
42662;SDS011;44330;51.360;6.686;2023-05-10T15:01:33;17.55;;;13.05;;
42662;SDS011;44330;51.360;6.686;2023-05-10T15:04:02;22.83;;;12.75;;
42662;SDS011;44330;51.360;6.686;2023-05-10T15:06:31;14.93;;;11.57;;
42662;SDS011;44330;51.360;6.686;2023-05-10T15:08:57;16.50;;;11.52;;
42662;SDS011;44330;51.360;6.686;2023-05-10T15:11:23;18.00;;;10.85;;
42662;SDS011;44330;51.360;6.686;2023-05-10T15:13:48;16.95;;;10.75;;
42662;SDS011;44330;51.360;6.686;2023-05-10T15:16:14;16.58;;;11.85;;
42662;SDS011;44330;51.360;6.686;2023-05-10T15:18:44;15.65;;;11.75;;